sensor_id;sensor_type;location;lat;lon;timestamp;pressure;altitude;pressure_sealevel;temperature;humidity
23303;BME280;11820;48.738;9.092;2022-11-14T00:01:27;96216.56;;;6.06;nan
23303;BME280;11820;48.738;9.092;2022-11-14T00:03:52;96215.44;;;6.09;nan
23303;BME280;11820;48.738;9.092;2022-11-14T00:06:19;96221.00;;;6.12;nan
23303;BME280;11820;48.738;9.092;2022-11-14T00:08:44;96217.03;;;6.10;nan
23303;BME280;11820;48.738;9.092;2022-11-14T00:11:10;96217.84;;;6.02;nan
23303;BME280;11820;48.738;9.092;2022-11-14T00:13:35;96221.63;;;5.84;nan
23303;BME280;11820;48.738;9.092;2022-11-14T00:16:00;96222.22;;;5.94;nan
23303;BME280;11820;48.738;9.092;2022-11-14T00:18:25;96220.94;;;5.90;nan
23303;BME280;11820;48.738;9.092;2022-11-14T00:20:52;96222.06;;;5.95;nan
23303;BME280;11820;48.738;9.092;2022-11-14T00:23:18;96213.88;;;5.92;nan
23303;BME280;11820;48.738;9.092;2022-11-14T00:25:44;96214.56;;;5.86;nan
23303;BME280;11820;48.738;9.092;2022-11-14T00:28:10;96215.81;;;5.90;nan
23303;BME280;11820;48.738;9.092;2022-11-14T00:30:35;96211.69;;;5.81;nan
23303;BME280;11820;48.738;9.092;2022-11-14T00:33:00;96212.66;;;5.64;nan
23303;BME280;11820;48.738;9.092;2022-11-14T00:35:25;96216.00;;;5.80;nan
23303;BME280;11820;48.738;9.092;2022-11-14T00:37:51;96216.50;;;5.84;nan
23303;BME280;11820;48.738;9.092;2022-11-14T00:40:16;96209.75;;;5.83;nan
23303;BME280;11820;48.738;9.092;2022-11-14T00:42:42;96212.59;;;5.96;nan
23303;BME280;11820;48.738;9.092;2022-11-14T00:45:08;96207.63;;;5.94;nan
23303;BME280;11820;48.738;9.092;2022-11-14T00:47:33;96203.47;;;5.85;nan
23303;BME280;11820;48.738;9.092;2022-11-14T00:49:59;96203.47;;;5.77;nan
23303;BME280;11820;48.738;9.092;2022-11-14T00:52:24;96194.03;;;5.86;nan
23303;BME280;11820;48.738;9.092;2022-11-14T00:54:49;96189.88;;;5.69;nan
23303;BME280;11820;48.738;9.092;2022-11-14T00:57:15;96188.41;;;5.82;nan
23303;BME280;11820;48.738;9.092;2022-11-14T00:59:40;96185.38;;;5.87;nan
23303;BME280;11820;48.738;9.092;2022-11-14T01:02:05;96183.94;;;5.76;nan
23303;BME280;11820;48.738;9.092;2022-11-14T01:04:31;96191.81;;;5.83;nan
23303;BME280;11820;48.738;9.092;2022-11-14T01:06:56;96197.41;;;5.78;nan
23303;BME280;11820;48.738;9.092;2022-11-14T01:09:21;96188.91;;;5.86;nan
23303;BME280;11820;48.738;9.092;2022-11-14T01:11:47;96177.19;;;5.91;nan
23303;BME280;11820;48.738;9.092;2022-11-14T01:14:12;96181.50;;;5.91;nan
23303;BME280;11820;48.738;9.092;2022-11-14T01:16:37;96177.69;;;5.87;nan
23303;BME280;11820;48.738;9.092;2022-11-14T01:19:03;96179.56;;;5.93;nan
23303;BME280;11820;48.738;9.092;2022-11-14T01:21:29;96179.22;;;5.96;nan
23303;BME280;11820;48.738;9.092;2022-11-14T01:23:54;96180.47;;;6.08;nan
23303;BME280;11820;48.738;9.092;2022-11-14T01:26:20;96167.78;;;6.06;nan
23303;BME280;11820;48.738;9.092;2022-11-14T01:28:45;96171.56;;;5.88;nan
23303;BME280;11820;48.738;9.092;2022-11-14T01:31:13;96166.59;;;5.94;nan
23303;BME280;11820;48.738;9.092;2022-11-14T01:33:39;96165.09;;;6.00;nan
23303;BME280;11820;48.738;9.092;2022-11-14T01:36:05;96162.03;;;6.04;nan
23303;BME280;11820;48.738;9.092;2022-11-14T01:38:31;96148.03;;;6.15;nan
23303;BME280;11820;48.738;9.092;2022-11-14T01:40:57;96160.56;;;6.10;nan
23303;BME280;11820;48.738;9.092;2022-11-14T01:46:00;96150.59;;;6.15;nan
23303;BME280;11820;48.738;9.092;2022-11-14T01:54:01;96139.56;;;6.06;nan
23303;BME280;11820;48.738;9.092;2022-11-14T01:56:46;96136.72;;;6.01;nan
23303;BME280;11820;48.738;9.092;2022-11-14T01:59:17;96139.63;;;6.21;nan
23303;BME280;11820;48.738;9.092;2022-11-14T02:01:49;96138.16;;;6.26;nan
23303;BME280;11820;48.738;9.092;2022-11-14T02:04:24;96125.50;;;6.25;nan
23303;BME280;11820;48.738;9.092;2022-11-14T02:06:54;96133.31;;;6.31;nan
23303;BME280;11820;48.738;9.092;2022-11-14T02:09:21;96141.78;;;6.39;nan
23303;BME280;11820;48.738;9.092;2022-11-14T02:11:47;96134.41;;;6.37;nan
23303;BME280;11820;48.738;9.092;2022-11-14T02:14:13;96133.78;;;6.35;nan
23303;BME280;11820;48.738;9.092;2022-11-14T02:16:40;96133.84;;;6.27;nan
23303;BME280;11820;48.738;9.092;2022-11-14T02:19:06;96134.91;;;6.32;nan
23303;BME280;11820;48.738;9.092;2022-11-14T02:21:31;96143.16;;;6.28;nan
23303;BME280;11820;48.738;9.092;2022-11-14T02:23:56;96136.72;;;6.24;nan
23303;BME280;11820;48.738;9.092;2022-11-14T02:26:22;96138.56;;;6.15;nan
23303;BME280;11820;48.738;9.092;2022-11-14T02:28:48;96134.22;;;6.16;nan
23303;BME280;11820;48.738;9.092;2022-11-14T02:31:14;96139.50;;;6.22;nan
23303;BME280;11820;48.738;9.092;2022-11-14T02:33:40;96141.78;;;6.17;nan
23303;BME280;11820;48.738;9.092;2022-11-14T02:36:05;96142.09;;;6.14;nan
23303;BME280;11820;48.738;9.092;2022-11-14T02:38:31;96146.28;;;6.07;nan
23303;BME280;11820;48.738;9.092;2022-11-14T02:40:58;96138.31;;;6.02;nan
23303;BME280;11820;48.738;9.092;2022-11-14T02:43:24;96144.34;;;6.09;nan
23303;BME280;11820;48.738;9.092;2022-11-14T02:45:49;96130.88;;;5.85;nan
23303;BME280;11820;48.738;9.092;2022-11-14T02:48:15;96136.16;;;5.75;nan
23303;BME280;11820;48.738;9.092;2022-11-14T02:50:40;96137.94;;;5.83;nan
23303;BME280;11820;48.738;9.092;2022-11-14T02:53:05;96144.34;;;5.71;nan
23303;BME280;11820;48.738;9.092;2022-11-14T02:55:31;96143.06;;;5.75;nan
23303;BME280;11820;48.738;9.092;2022-11-14T02:57:56;96140.19;;;5.70;nan
23303;BME280;11820;48.738;9.092;2022-11-14T03:00:21;96144.88;;;5.58;nan
23303;BME280;11820;48.738;9.092;2022-11-14T03:02:47;96139.59;;;5.60;nan
23303;BME280;11820;48.738;9.092;2022-11-14T03:05:12;96140.84;;;5.64;nan
23303;BME280;11820;48.738;9.092;2022-11-14T03:07:37;96149.63;;;5.77;nan
23303;BME280;11820;48.738;9.092;2022-11-14T03:10:03;96153.69;;;5.64;nan
23303;BME280;11820;48.738;9.092;2022-11-14T03:12:29;96151.31;;;5.62;nan
23303;BME280;11820;48.738;9.092;2022-11-14T03:14:54;96139.56;;;5.68;nan
23303;BME280;11820;48.738;9.092;2022-11-14T03:17:20;96129.81;;;5.63;nan
23303;BME280;11820;48.738;9.092;2022-11-14T03:19:48;96120.56;;;5.46;nan
23303;BME280;11820;48.738;9.092;2022-11-14T03:22:14;96109.38;;;5.39;nan
23303;BME280;11820;48.738;9.092;2022-11-14T03:24:39;96111.75;;;5.49;nan
23303;BME280;11820;48.738;9.092;2022-11-14T03:27:04;96107.91;;;5.45;nan
23303;BME280;11820;48.738;9.092;2022-11-14T03:29:30;96105.53;;;5.43;nan
23303;BME280;11820;48.738;9.092;2022-11-14T03:31:55;96103.59;;;5.45;nan
23303;BME280;11820;48.738;9.092;2022-11-14T03:34:20;96115.44;;;5.46;nan
23303;BME280;11820;48.738;9.092;2022-11-14T03:36:45;96113.75;;;5.31;nan
23303;BME280;11820;48.738;9.092;2022-11-14T03:39:11;96102.97;;;5.43;nan
23303;BME280;11820;48.738;9.092;2022-11-14T03:41:36;96113.44;;;5.26;nan
23303;BME280;11820;48.738;9.092;2022-11-14T03:44:02;96093.94;;;5.09;nan
23303;BME280;11820;48.738;9.092;2022-11-14T03:46:27;96093.44;;;5.13;nan
23303;BME280;11820;48.738;9.092;2022-11-14T03:48:52;96082.88;;;5.16;nan
23303;BME280;11820;48.738;9.092;2022-11-14T03:51:17;96087.19;;;5.24;nan
23303;BME280;11820;48.738;9.092;2022-11-14T03:53:43;96087.44;;;5.37;nan
23303;BME280;11820;48.738;9.092;2022-11-14T03:56:08;96092.84;;;5.42;nan
23303;BME280;11820;48.738;9.092;2022-11-14T03:58:33;96088.41;;;5.36;nan
23303;BME280;11820;48.738;9.092;2022-11-14T04:00:59;96107.66;;;5.32;nan
23303;BME280;11820;48.738;9.092;2022-11-14T04:03:24;96114.84;;;5.36;nan
23303;BME280;11820;48.738;9.092;2022-11-14T04:05:50;96121.72;;;5.36;nan
23303;BME280;11820;48.738;9.092;2022-11-14T04:08:16;96124.00;;;5.23;nan
23303;BME280;11820;48.738;9.092;2022-11-14T04:10:41;96120.13;;;5.35;nan
23303;BME280;11820;48.738;9.092;2022-11-14T04:13:07;96109.38;;;5.39;nan
23303;BME280;11820;48.738;9.092;2022-11-14T04:15:33;96098.66;;;5.36;nan
23303;BME280;11820;48.738;9.092;2022-11-14T04:17:58;96109.22;;;5.41;nan
23303;BME280;11820;48.738;9.092;2022-11-14T04:20:24;96108.28;;;5.34;nan
23303;BME280;11820;48.738;9.092;2022-11-14T04:22:49;96103.78;;;5.36;nan
23303;BME280;11820;48.738;9.092;2022-11-14T04:25:14;96107.97;;;5.29;nan
23303;BME280;11820;48.738;9.092;2022-11-14T04:27:40;96104.97;;;5.17;nan
23303;BME280;11820;48.738;9.092;2022-11-14T04:30:06;96109.91;;;5.19;nan
23303;BME280;11820;48.738;9.092;2022-11-14T04:32:31;96104.22;;;5.01;nan
23303;BME280;11820;48.738;9.092;2022-11-14T04:34:57;96097.34;;;4.93;nan
23303;BME280;11820;48.738;9.092;2022-11-14T04:37:22;96101.31;;;4.96;nan
23303;BME280;11820;48.738;9.092;2022-11-14T04:39:47;96097.50;;;5.00;nan
23303;BME280;11820;48.738;9.092;2022-11-14T04:42:13;96092.81;;;5.03;nan
23303;BME280;11820;48.738;9.092;2022-11-14T04:44:38;96078.91;;;4.98;nan
23303;BME280;11820;48.738;9.092;2022-11-14T04:47:03;96074.72;;;5.05;nan
23303;BME280;11820;48.738;9.092;2022-11-14T04:49:29;96069.75;;;5.11;nan
23303;BME280;11820;48.738;9.092;2022-11-14T04:51:54;96074.41;;;5.08;nan
23303;BME280;11820;48.738;9.092;2022-11-14T04:54:19;96082.41;;;5.05;nan
23303;BME280;11820;48.738;9.092;2022-11-14T04:56:45;96082.25;;;5.06;nan
23303;BME280;11820;48.738;9.092;2022-11-14T04:59:10;96080.13;;;5.18;nan
23303;BME280;11820;48.738;9.092;2022-11-14T05:01:35;96077.91;;;5.15;nan
23303;BME280;11820;48.738;9.092;2022-11-14T05:04:00;96065.72;;;5.25;nan
23303;BME280;11820;48.738;9.092;2022-11-14T05:06:26;96062.78;;;5.36;nan
23303;BME280;11820;48.738;9.092;2022-11-14T05:08:51;96068.56;;;5.30;nan
23303;BME280;11820;48.738;9.092;2022-11-14T05:11:18;96057.72;;;5.12;nan
23303;BME280;11820;48.738;9.092;2022-11-14T05:13:45;96045.22;;;5.25;nan
23303;BME280;11820;48.738;9.092;2022-11-14T05:16:11;96038.09;;;5.35;nan
23303;BME280;11820;48.738;9.092;2022-11-14T05:18:37;96040.28;;;5.46;nan
23303;BME280;11820;48.738;9.092;2022-11-14T05:21:03;96038.53;;;5.46;nan
23303;BME280;11820;48.738;9.092;2022-11-14T05:23:28;96041.88;;;5.55;nan
23303;BME280;11820;48.738;9.092;2022-11-14T05:26:05;96039.00;;;5.50;nan
23303;BME280;11820;48.738;9.092;2022-11-14T05:28:31;96035.78;;;5.56;nan
23303;BME280;11820;48.738;9.092;2022-11-14T05:31:09;96031.47;;;5.48;nan
23303;BME280;11820;48.738;9.092;2022-11-14T05:33:34;96034.50;;;5.52;nan
23303;BME280;11820;48.738;9.092;2022-11-14T05:36:04;96043.00;;;5.52;nan
23303;BME280;11820;48.738;9.092;2022-11-14T05:38:30;96035.78;;;5.48;nan
23303;BME280;11820;48.738;9.092;2022-11-14T05:40:56;96040.72;;;5.57;nan
23303;BME280;11820;48.738;9.092;2022-11-14T05:43:21;96048.72;;;5.62;nan
23303;BME280;11820;48.738;9.092;2022-11-14T05:45:47;96039.88;;;5.65;nan
23303;BME280;11820;48.738;9.092;2022-11-14T05:48:12;96043.69;;;5.69;nan
23303;BME280;11820;48.738;9.092;2022-11-14T05:50:37;96039.41;;;5.61;nan
23303;BME280;11820;48.738;9.092;2022-11-14T05:53:03;96043.91;;;5.59;nan
23303;BME280;11820;48.738;9.092;2022-11-14T05:55:28;96040.84;;;5.64;nan
23303;BME280;11820;48.738;9.092;2022-11-14T05:57:57;96043.06;;;5.67;nan
23303;BME280;11820;48.738;9.092;2022-11-14T06:00:22;96044.50;;;5.69;nan
23303;BME280;11820;48.738;9.092;2022-11-14T06:02:51;96053.47;;;5.73;nan
23303;BME280;11820;48.738;9.092;2022-11-14T06:05:17;96055.88;;;5.75;nan
23303;BME280;11820;48.738;9.092;2022-11-14T06:07:42;96056.03;;;5.73;nan
23303;BME280;11820;48.738;9.092;2022-11-14T06:10:07;96070.69;;;5.57;nan
23303;BME280;11820;48.738;9.092;2022-11-14T06:12:32;96075.09;;;5.71;nan
23303;BME280;11820;48.738;9.092;2022-11-14T06:14:58;96070.09;;;5.77;nan
23303;BME280;11820;48.738;9.092;2022-11-14T06:17:23;96068.47;;;5.84;nan
23303;BME280;11820;48.738;9.092;2022-11-14T06:19:49;96068.19;;;5.87;nan
23303;BME280;11820;48.738;9.092;2022-11-14T06:22:14;96077.00;;;5.77;nan
23303;BME280;11820;48.738;9.092;2022-11-14T06:24:39;96061.50;;;5.70;nan
23303;BME280;11820;48.738;9.092;2022-11-14T06:27:05;96059.19;;;5.83;nan
23303;BME280;11820;48.738;9.092;2022-11-14T06:29:30;96062.50;;;5.92;nan
23303;BME280;11820;48.738;9.092;2022-11-14T06:31:55;96062.84;;;5.89;nan
23303;BME280;11820;48.738;9.092;2022-11-14T06:34:21;96079.09;;;5.81;nan
23303;BME280;11820;48.738;9.092;2022-11-14T06:36:46;96072.03;;;5.83;nan
23303;BME280;11820;48.738;9.092;2022-11-14T06:39:11;96074.34;;;6.01;nan
23303;BME280;11820;48.738;9.092;2022-11-14T06:41:36;96070.34;;;5.98;nan
23303;BME280;11820;48.738;9.092;2022-11-14T06:44:02;96062.13;;;6.03;nan
23303;BME280;11820;48.738;9.092;2022-11-14T06:46:27;96068.19;;;6.10;nan
23303;BME280;11820;48.738;9.092;2022-11-14T06:48:52;96060.00;;;6.06;nan
23303;BME280;11820;48.738;9.092;2022-11-14T06:51:18;96062.41;;;6.08;nan
23303;BME280;11820;48.738;9.092;2022-11-14T06:53:43;96059.16;;;6.14;nan
23303;BME280;11820;48.738;9.092;2022-11-14T06:56:11;96057.16;;;6.24;nan
23303;BME280;11820;48.738;9.092;2022-11-14T06:58:42;96062.13;;;6.25;nan
23303;BME280;11820;48.738;9.092;2022-11-14T07:01:12;96053.94;;;6.30;nan
23303;BME280;11820;48.738;9.092;2022-11-14T07:03:38;96048.84;;;6.22;nan
23303;BME280;11820;48.738;9.092;2022-11-14T07:06:05;96045.75;;;6.26;nan
23303;BME280;11820;48.738;9.092;2022-11-14T07:08:31;96042.69;;;6.31;nan
23303;BME280;11820;48.738;9.092;2022-11-14T07:11:05;96039.31;;;6.30;nan
23303;BME280;11820;48.738;9.092;2022-11-14T07:13:31;96038.44;;;6.38;nan
23303;BME280;11820;48.738;9.092;2022-11-14T07:15:57;96036.56;;;6.32;nan
23303;BME280;11820;48.738;9.092;2022-11-14T07:18:23;96040.56;;;6.34;nan
23303;BME280;11820;48.738;9.092;2022-11-14T07:20:48;96046.84;;;6.32;nan
23303;BME280;11820;48.738;9.092;2022-11-14T07:23:14;96045.53;;;6.36;nan
23303;BME280;11820;48.738;9.092;2022-11-14T07:25:40;96051.34;;;6.30;nan
23303;BME280;11820;48.738;9.092;2022-11-14T07:28:05;96056.06;;;6.40;nan
23303;BME280;11820;48.738;9.092;2022-11-14T07:30:32;96056.88;;;6.41;nan
23303;BME280;11820;48.738;9.092;2022-11-14T07:32:57;96060.75;;;6.37;nan
23303;BME280;11820;48.738;9.092;2022-11-14T07:35:23;96064.28;;;6.36;nan
23303;BME280;11820;48.738;9.092;2022-11-14T07:37:49;96068.91;;;6.40;nan
23303;BME280;11820;48.738;9.092;2022-11-14T07:40:16;96070.22;;;6.37;nan
23303;BME280;11820;48.738;9.092;2022-11-14T07:42:41;96076.34;;;6.36;nan
23303;BME280;11820;48.738;9.092;2022-11-14T07:45:07;96069.88;;;6.39;nan
23303;BME280;11820;48.738;9.092;2022-11-14T07:47:33;96071.66;;;6.39;nan
23303;BME280;11820;48.738;9.092;2022-11-14T07:49:58;96076.25;;;6.43;nan
23303;BME280;11820;48.738;9.092;2022-11-14T07:52:23;96080.63;;;6.43;nan
23303;BME280;11820;48.738;9.092;2022-11-14T07:54:49;96083.94;;;6.51;nan
23303;BME280;11820;48.738;9.092;2022-11-14T07:57:15;96085.31;;;6.54;nan
23303;BME280;11820;48.738;9.092;2022-11-14T07:59:40;96088.16;;;6.59;nan
23303;BME280;11820;48.738;9.092;2022-11-14T08:02:10;96091.94;;;6.71;nan
23303;BME280;11820;48.738;9.092;2022-11-14T08:04:36;96095.16;;;6.87;nan
23303;BME280;11820;48.738;9.092;2022-11-14T08:07:01;96101.41;;;7.07;nan
23303;BME280;11820;48.738;9.092;2022-11-14T08:09:26;96099.88;;;7.27;nan
23303;BME280;11820;48.738;9.092;2022-11-14T08:11:52;96093.59;;;7.44;nan
23303;BME280;11820;48.738;9.092;2022-11-14T08:14:17;96112.03;;;7.62;nan
23303;BME280;11820;48.738;9.092;2022-11-14T08:16:43;96114.16;;;7.73;nan
23303;BME280;11820;48.738;9.092;2022-11-14T08:19:08;96096.06;;;7.81;nan
23303;BME280;11820;48.738;9.092;2022-11-14T08:21:33;96105.97;;;7.84;nan
23303;BME280;11820;48.738;9.092;2022-11-14T08:23:58;96104.81;;;7.87;nan
23303;BME280;11820;48.738;9.092;2022-11-14T08:26:24;96124.63;;;7.86;nan
23303;BME280;11820;48.738;9.092;2022-11-14T08:28:53;96141.28;;;7.90;nan
23303;BME280;11820;48.738;9.092;2022-11-14T08:31:19;96129.56;;;7.88;nan
23303;BME280;11820;48.738;9.092;2022-11-14T08:33:44;96131.97;;;7.89;nan
23303;BME280;11820;48.738;9.092;2022-11-14T08:36:10;96132.75;;;7.90;nan
23303;BME280;11820;48.738;9.092;2022-11-14T08:38:35;96136.50;;;7.87;nan
23303;BME280;11820;48.738;9.092;2022-11-14T08:41:02;96141.66;;;7.87;nan
23303;BME280;11820;48.738;9.092;2022-11-14T08:43:28;96128.94;;;7.86;nan
23303;BME280;11820;48.738;9.092;2022-11-14T08:46:01;96135.69;;;7.87;nan
23303;BME280;11820;48.738;9.092;2022-11-14T08:48:27;96133.41;;;7.92;nan
23303;BME280;11820;48.738;9.092;2022-11-14T08:50:52;96121.69;;;7.89;nan
23303;BME280;11820;48.738;9.092;2022-11-14T08:53:18;96130.00;;;7.91;nan
23303;BME280;11820;48.738;9.092;2022-11-14T08:55:44;96131.44;;;7.94;nan
23303;BME280;11820;48.738;9.092;2022-11-14T08:58:10;96133.81;;;7.95;nan
23303;BME280;11820;48.738;9.092;2022-11-14T09:00:35;96134.44;;;7.97;nan
23303;BME280;11820;48.738;9.092;2022-11-14T09:03:08;96134.06;;;8.00;nan
23303;BME280;11820;48.738;9.092;2022-11-14T09:05:35;96125.97;;;8.03;nan
23303;BME280;11820;48.738;9.092;2022-11-14T09:08:00;96110.97;;;8.06;nan
23303;BME280;11820;48.738;9.092;2022-11-14T09:10:25;96122.16;;;8.13;nan
23303;BME280;11820;48.738;9.092;2022-11-14T09:12:58;96113.44;;;8.14;nan
23303;BME280;11820;48.738;9.092;2022-11-14T09:15:26;96120.50;;;8.20;nan
23303;BME280;11820;48.738;9.092;2022-11-14T09:17:52;96121.88;;;8.23;nan
23303;BME280;11820;48.738;9.092;2022-11-14T09:20:18;96111.94;;;8.20;nan
23303;BME280;11820;48.738;9.092;2022-11-14T09:22:44;96115.75;;;8.24;nan
23303;BME280;11820;48.738;9.092;2022-11-14T09:25:09;96110.44;;;8.25;nan
23303;BME280;11820;48.738;9.092;2022-11-14T09:27:35;96102.50;;;8.27;nan
23303;BME280;11820;48.738;9.092;2022-11-14T09:30:00;96106.34;;;8.31;nan
23303;BME280;11820;48.738;9.092;2022-11-14T09:32:25;96113.25;;;8.30;nan
23303;BME280;11820;48.738;9.092;2022-11-14T09:34:51;96108.53;;;8.34;nan
23303;BME280;11820;48.738;9.092;2022-11-14T09:37:16;96099.47;;;8.38;nan
23303;BME280;11820;48.738;9.092;2022-11-14T09:39:41;96097.13;;;8.43;nan
23303;BME280;11820;48.738;9.092;2022-11-14T09:42:20;96098.97;;;8.49;nan
23303;BME280;11820;48.738;9.092;2022-11-14T09:45:14;96099.78;;;8.49;nan
23303;BME280;11820;48.738;9.092;2022-11-14T09:47:49;96104.72;;;8.51;nan
23303;BME280;11820;48.738;9.092;2022-11-14T09:52:44;96091.13;;;8.57;nan
23303;BME280;11820;48.738;9.092;2022-11-14T09:55:41;96093.56;;;8.65;nan
23303;BME280;11820;48.738;9.092;2022-11-14T09:58:18;96093.06;;;8.76;nan
23303;BME280;11820;48.738;9.092;2022-11-14T10:00:49;96093.06;;;8.76;nan
23303;BME280;11820;48.738;9.092;2022-11-14T10:03:24;96092.31;;;8.82;nan
23303;BME280;11820;48.738;9.092;2022-11-14T10:08:43;96074.31;;;9.16;nan
23303;BME280;11820;48.738;9.092;2022-11-14T10:11:18;96086.81;;;9.19;nan
23303;BME280;11820;48.738;9.092;2022-11-14T10:27:32;96085.88;;;9.60;nan
23303;BME280;11820;48.738;9.092;2022-11-14T10:30:18;96093.38;;;9.55;nan
23303;BME280;11820;48.738;9.092;2022-11-14T10:38:18;96095.38;;;9.53;nan
23303;BME280;11820;48.738;9.092;2022-11-14T10:40:48;96096.56;;;9.57;nan
23303;BME280;11820;48.738;9.092;2022-11-14T10:45:52;96097.63;;;9.69;nan
23303;BME280;11820;48.738;9.092;2022-11-14T10:48:29;96093.84;;;10.12;nan
23303;BME280;11820;48.738;9.092;2022-11-14T10:50:57;96089.13;;;11.38;nan
23303;BME280;11820;48.738;9.092;2022-11-14T10:53:42;96097.53;;;11.21;nan
23303;BME280;11820;48.738;9.092;2022-11-14T10:56:11;96093.56;;;10.60;nan
23303;BME280;11820;48.738;9.092;2022-11-14T10:58:40;96091.00;;;10.86;nan
23303;BME280;11820;48.738;9.092;2022-11-14T11:04:29;96085.97;;;10.52;nan
23303;BME280;11820;48.738;9.092;2022-11-14T11:09:38;96080.59;;;10.47;nan
23303;BME280;11820;48.738;9.092;2022-11-14T11:12:24;96075.22;;;10.42;nan
23303;BME280;11820;48.738;9.092;2022-11-14T11:15:21;96082.19;;;10.42;nan
23303;BME280;11820;48.738;9.092;2022-11-14T11:18:00;96082.00;;;10.43;nan
23303;BME280;11820;48.738;9.092;2022-11-14T11:20:40;96070.84;;;10.36;nan
23303;BME280;11820;48.738;9.092;2022-11-14T11:23:17;96069.44;;;10.34;nan
23303;BME280;11820;48.738;9.092;2022-11-14T11:25:43;96080.59;;;10.34;nan
23303;BME280;11820;48.738;9.092;2022-11-14T11:28:14;96074.81;;;10.26;nan
23303;BME280;11820;48.738;9.092;2022-11-14T11:30:54;96082.75;;;10.24;nan
23303;BME280;11820;48.738;9.092;2022-11-14T11:35:48;96073.59;;;10.15;nan
23303;BME280;11820;48.738;9.092;2022-11-14T11:38:15;96075.56;;;10.13;nan
23303;BME280;11820;48.738;9.092;2022-11-14T11:40:43;96071.78;;;10.09;nan
23303;BME280;11820;48.738;9.092;2022-11-14T11:43:15;96073.97;;;10.06;nan
23303;BME280;11820;48.738;9.092;2022-11-14T11:45:46;96081.28;;;10.02;nan
23303;BME280;11820;48.738;9.092;2022-11-14T11:48:19;96078.91;;;10.01;nan
23303;BME280;11820;48.738;9.092;2022-11-14T11:50:46;96069.13;;;9.96;nan
23303;BME280;11820;48.738;9.092;2022-11-14T11:53:35;96063.19;;;9.96;nan
23303;BME280;11820;48.738;9.092;2022-11-14T11:56:10;96065.94;;;9.94;nan
23303;BME280;11820;48.738;9.092;2022-11-14T11:58:43;96064.34;;;9.93;nan
23303;BME280;11820;48.738;9.092;2022-11-14T12:01:13;96069.53;;;9.93;nan
23303;BME280;11820;48.738;9.092;2022-11-14T12:03:42;96070.13;;;9.95;nan
23303;BME280;11820;48.738;9.092;2022-11-14T12:06:17;96068.75;;;9.99;nan
23303;BME280;11820;48.738;9.092;2022-11-14T12:11:38;96074.75;;;10.06;nan
23303;BME280;11820;48.738;9.092;2022-11-14T12:30:38;96053.34;;;12.79;nan
23303;BME280;11820;48.738;9.092;2022-11-14T12:33:11;96046.38;;;13.82;nan
23303;BME280;11820;48.738;9.092;2022-11-14T12:35:48;96047.91;;;14.19;nan
23303;BME280;11820;48.738;9.092;2022-11-14T12:38:15;96056.06;;;14.63;nan
23303;BME280;11820;48.738;9.092;2022-11-14T12:41:03;96050.38;;;14.55;nan
23303;BME280;11820;48.738;9.092;2022-11-14T12:43:35;96055.63;;;14.07;nan
23303;BME280;11820;48.738;9.092;2022-11-14T12:46:06;96055.66;;;13.35;nan
23303;BME280;11820;48.738;9.092;2022-11-14T12:48:36;96048.09;;;13.34;nan
23303;BME280;11820;48.738;9.092;2022-11-14T12:51:04;96054.50;;;13.31;nan
23303;BME280;11820;48.738;9.092;2022-11-14T12:53:37;96041.25;;;13.75;nan
23303;BME280;11820;48.738;9.092;2022-11-14T12:59:08;96035.75;;;15.52;nan
23303;BME280;11820;48.738;9.092;2022-11-14T13:04:26;96029.03;;;16.34;nan
23303;BME280;11820;48.738;9.092;2022-11-14T13:12:28;96033.47;;;14.75;nan
23303;BME280;11820;48.738;9.092;2022-11-14T13:18:25;96031.66;;;13.58;nan
23303;BME280;11820;48.738;9.092;2022-11-14T13:21:25;96036.28;;;14.21;nan
23303;BME280;11820;48.738;9.092;2022-11-14T13:24:11;96031.66;;;14.23;nan
23303;BME280;11820;48.738;9.092;2022-11-14T13:26:38;96031.16;;;14.67;nan
23303;BME280;11820;48.738;9.092;2022-11-14T13:29:04;96039.31;;;14.59;nan
23303;BME280;11820;48.738;9.092;2022-11-14T13:36:56;96027.13;;;14.30;nan
23303;BME280;11820;48.738;9.092;2022-11-14T13:50:14;96026.09;;;15.18;nan
23303;BME280;11820;48.738;9.092;2022-11-14T13:52:47;96026.66;;;14.74;nan
23303;BME280;11820;48.738;9.092;2022-11-14T13:57:58;96027.97;;;15.29;nan
23303;BME280;11820;48.738;9.092;2022-11-14T14:00:55;96028.53;;;15.31;nan
23303;BME280;11820;48.738;9.092;2022-11-14T14:03:36;96023.84;;;15.56;nan
23303;BME280;11820;48.738;9.092;2022-11-14T14:09:19;96030.44;;;15.01;nan
23303;BME280;11820;48.738;9.092;2022-11-14T14:23:14;96027.25;;;13.40;nan
23303;BME280;11820;48.738;9.092;2022-11-14T14:29:03;96030.53;;;13.11;nan
23303;BME280;11820;48.738;9.092;2022-11-14T14:31:36;96031.09;;;13.13;nan
23303;BME280;11820;48.738;9.092;2022-11-14T14:34:02;96024.41;;;13.06;nan
23303;BME280;11820;48.738;9.092;2022-11-14T14:36:53;96025.38;;;13.29;nan
23303;BME280;11820;48.738;9.092;2022-11-14T14:39:22;96024.06;;;13.38;nan
23303;BME280;11820;48.738;9.092;2022-11-14T14:41:50;96034.16;;;13.28;nan
23303;BME280;11820;48.738;9.092;2022-11-14T14:44:29;96031.53;;;13.10;nan
23303;BME280;11820;48.738;9.092;2022-11-14T14:46:58;96038.81;;;12.78;nan
23303;BME280;11820;48.738;9.092;2022-11-14T14:49:38;96043.34;;;12.58;nan
23303;BME280;11820;48.738;9.092;2022-11-14T14:54:56;96032.94;;;12.33;nan
23303;BME280;11820;48.738;9.092;2022-11-14T14:57:28;96036.19;;;12.22;nan
23303;BME280;11820;48.738;9.092;2022-11-14T15:00:01;96049.03;;;12.11;nan
23303;BME280;11820;48.738;9.092;2022-11-14T15:02:28;96035.16;;;11.99;nan
23303;BME280;11820;48.738;9.092;2022-11-14T15:04:56;96041.59;;;11.90;nan
23303;BME280;11820;48.738;9.092;2022-11-14T15:07:25;96047.41;;;11.79;nan
23303;BME280;11820;48.738;9.092;2022-11-14T15:09:53;96051.41;;;11.75;nan
23303;BME280;11820;48.738;9.092;2022-11-14T15:12:20;96049.84;;;11.67;nan
23303;BME280;11820;48.738;9.092;2022-11-14T15:14:47;96052.44;;;11.61;nan
23303;BME280;11820;48.738;9.092;2022-11-14T15:17:14;96046.09;;;11.57;nan
23303;BME280;11820;48.738;9.092;2022-11-14T15:19:41;96054.22;;;11.54;nan
23303;BME280;11820;48.738;9.092;2022-11-14T15:24:42;96044.94;;;11.40;nan
23303;BME280;11820;48.738;9.092;2022-11-14T15:27:18;96051.91;;;11.33;nan
23303;BME280;11820;48.738;9.092;2022-11-14T15:29:50;96049.72;;;11.30;nan
23303;BME280;11820;48.738;9.092;2022-11-14T15:32:34;96054.13;;;11.23;nan
23303;BME280;11820;48.738;9.092;2022-11-14T15:35:24;96055.94;;;11.16;nan